createdAt,value
2022-11-05T00:00:28.360Z,2.47
2022-11-05T00:03:14.280Z,2.23
2022-11-05T00:06:00.462Z,2.60
2022-11-05T00:08:46.913Z,2.40
2022-11-05T00:11:18.242Z,2.57
2022-11-05T00:14:04.265Z,2.40
2022-11-05T00:16:45.281Z,2.40
2022-11-05T00:19:14.937Z,2.67
2022-11-05T00:22:00.406Z,2.27
2022-11-05T00:24:46.329Z,3.10
2022-11-05T00:27:14.523Z,3.03
2022-11-05T00:29:43.004Z,3.07
2022-11-05T00:32:13.032Z,3.27
2022-11-05T00:34:41.554Z,3.40
2022-11-05T00:37:09.869Z,2.80
2022-11-05T00:39:38.179Z,2.53
2022-11-05T00:42:24.061Z,3.33
2022-11-05T00:45:04.314Z,2.40
2022-11-05T00:47:52.662Z,2.43
2022-11-05T00:50:22.194Z,2.67
2022-11-05T00:52:58.199Z,3.20
2022-11-05T00:55:29.949Z,2.80
2022-11-05T00:57:59.057Z,2.83
2022-11-05T01:00:29.685Z,2.73
2022-11-05T01:03:04.717Z,3.67
2022-11-05T01:05:34.646Z,2.87
2022-11-05T01:08:03.175Z,3.10
2022-11-05T01:10:31.422Z,3.43
2022-11-05T01:12:59.892Z,4.00
2022-11-05T01:15:29.633Z,2.93
2022-11-05T01:17:58.056Z,3.00
2022-11-05T01:20:28.053Z,3.17
2022-11-05T01:22:56.330Z,2.80
2022-11-05T01:25:24.909Z,2.60
2022-11-05T01:27:53.078Z,3.67
2022-11-05T01:30:22.443Z,3.27
2022-11-05T01:32:50.613Z,3.30
2022-11-05T01:35:19.624Z,3.70
2022-11-05T01:37:49.364Z,3.33
2022-11-05T01:40:21.984Z,3.60
2022-11-05T01:42:50.510Z,3.37
2022-11-05T01:45:20.749Z,3.33
2022-11-05T01:47:59.227Z,3.27
2022-11-05T01:51:21.282Z,3.57
2022-11-05T01:53:54.643Z,3.90
2022-11-05T01:56:26.098Z,4.47
2022-11-05T01:58:58.165Z,3.90
2022-11-05T02:01:29.558Z,4.00
2022-11-05T02:04:01.459Z,4.30
2022-11-05T02:06:31.142Z,4.50
2022-11-05T02:09:06.154Z,3.80
2022-11-05T02:11:34.644Z,3.73
2022-11-05T02:14:03.778Z,3.87
2022-11-05T02:16:40.548Z,4.27
2022-11-05T02:19:44.197Z,3.60
2022-11-05T02:22:40.894Z,4.53
2022-11-05T02:25:28.634Z,3.30
2022-11-05T02:28:24.529Z,3.57
2022-11-05T02:30:59.444Z,4.30
2022-11-05T02:33:39.359Z,3.87
2022-11-05T02:36:36.680Z,3.80
2022-11-05T02:39:16.468Z,4.63
2022-11-05T02:41:59.222Z,4.60
2022-11-05T02:44:40.614Z,4.33
2022-11-05T02:47:21.343Z,5.37
2022-11-05T02:49:59.260Z,5.83
2022-11-05T02:52:36.858Z,4.33
2022-11-05T02:55:14.583Z,5.37
2022-11-05T02:57:45.715Z,4.80
2022-11-05T03:00:40.117Z,5.73
2022-11-05T03:03:16.456Z,5.73
2022-11-05T03:05:52.152Z,4.40
2022-11-05T03:08:31.520Z,6.43
2022-11-05T03:11:03.408Z,5.10
2022-11-05T03:13:40.860Z,5.40
2022-11-05T03:16:17.304Z,5.33
2022-11-05T03:18:53.548Z,6.23
2022-11-05T03:21:24.438Z,5.90
2022-11-05T03:23:57.384Z,6.73
2022-11-05T03:26:29.877Z,6.80
2022-11-05T03:29:02.105Z,6.37
2022-11-05T03:31:31.830Z,6.30
2022-11-05T03:34:05.385Z,6.50
2022-11-05T03:36:37.807Z,6.50
2022-11-05T03:39:08.932Z,5.60
2022-11-05T03:41:40.452Z,5.20
2022-11-05T03:44:10.468Z,5.57
2022-11-05T03:46:42.819Z,5.77
2022-11-05T03:49:20.067Z,5.73
2022-11-05T03:51:54.503Z,6.20
2022-11-05T03:54:23.448Z,6.03
2022-11-05T03:57:00.951Z,5.73
2022-11-05T03:59:30.472Z,7.97
2022-11-05T04:01:59.483Z,6.50
2022-11-05T04:04:30.427Z,6.63
2022-11-05T04:07:15.850Z,6.10
2022-11-05T04:10:01.327Z,7.30
2022-11-05T04:12:47.485Z,5.93
2022-11-05T04:15:15.722Z,6.50
2022-11-05T04:17:42.801Z,5.33
2022-11-05T04:20:34.767Z,6.60
2022-11-05T04:23:22.200Z,7.40
2022-11-05T04:25:50.744Z,7.70
2022-11-05T04:28:18.973Z,6.40
2022-11-05T04:30:46.173Z,8.30
2022-11-05T04:33:16.163Z,7.10
2022-11-05T04:35:47.925Z,7.83
2022-11-05T04:38:20.128Z,6.93
2022-11-05T04:40:48.841Z,6.60
2022-11-05T04:43:19.689Z,7.63
2022-11-05T04:45:48.212Z,6.93
2022-11-05T04:48:16.550Z,8.57
2022-11-05T04:50:46.338Z,6.80
2022-11-05T04:53:14.882Z,6.93
2022-11-05T04:55:43.025Z,7.20
2022-11-05T04:58:11.491Z,7.23
2022-11-05T05:00:39.745Z,7.90
2022-11-05T05:03:08.293Z,7.30
2022-11-05T05:05:36.598Z,7.60
2022-11-05T05:08:08.149Z,6.63
2022-11-05T05:10:36.416Z,7.93
2022-11-05T05:13:04.755Z,6.83
2022-11-05T05:15:33.393Z,6.83
2022-11-05T05:18:01.644Z,6.67
2022-11-05T05:20:47.371Z,9.17
2022-11-05T05:23:16.938Z,6.37
2022-11-05T05:25:45.583Z,7.00
2022-11-05T05:28:14.400Z,6.47
2022-11-05T05:30:42.612Z,6.57
2022-11-05T05:33:11.275Z,6.57
2022-11-05T05:35:39.641Z,7.83
2022-11-05T05:38:07.684Z,8.70
2022-11-05T05:40:37.262Z,7.40
2022-11-05T05:43:05.500Z,7.17
2022-11-05T05:45:33.669Z,7.30
2022-11-05T05:48:01.883Z,7.87
2022-11-05T05:50:30.180Z,6.93
2022-11-05T05:53:09.074Z,6.77
2022-11-05T05:55:38.740Z,6.63
2022-11-05T05:58:07.143Z,7.30
2022-11-05T06:00:35.569Z,8.37
2022-11-05T06:03:03.971Z,8.27
2022-11-05T06:05:32.422Z,8.10
2022-11-05T06:08:02.195Z,7.60
2022-11-05T06:10:30.531Z,7.93
2022-11-05T06:13:02.083Z,7.07
2022-11-05T06:15:35.716Z,6.63
2022-11-05T06:18:04.666Z,7.50
2022-11-05T06:20:33.066Z,6.93
2022-11-05T06:23:01.416Z,7.30
2022-11-05T06:25:29.631Z,6.90
2022-11-05T06:27:57.926Z,6.80
2022-11-05T06:30:27.401Z,6.90
2022-11-05T06:32:55.782Z,7.30
2022-11-05T06:35:24.321Z,7.87
2022-11-05T06:37:52.794Z,7.50
2022-11-05T06:40:21.237Z,6.97
2022-11-05T06:42:53.248Z,7.63
2022-11-05T06:45:22.235Z,7.50
2022-11-05T06:48:00.184Z,7.47
2022-11-05T06:50:29.587Z,7.53
2022-11-05T06:52:59.046Z,7.50
2022-11-05T06:55:28.890Z,7.23
2022-11-05T06:57:57.580Z,7.80
2022-11-05T07:00:26.539Z,6.90
2022-11-05T07:02:57.015Z,7.57
2022-11-05T07:05:27.399Z,6.53
2022-11-05T07:07:55.709Z,7.40
2022-11-05T07:10:24.257Z,6.87
2022-11-05T07:12:52.991Z,8.07
2022-11-05T07:15:21.503Z,8.50
2022-11-05T07:17:49.768Z,7.20
2022-11-05T07:20:18.572Z,7.80
2022-11-05T07:22:49.153Z,7.30
2022-11-05T07:25:18.182Z,5.83
2022-11-05T07:27:47.465Z,7.67
2022-11-05T07:30:16.836Z,7.17
2022-11-05T07:32:45.678Z,6.97
2022-11-05T07:35:14.419Z,6.40
2022-11-05T07:37:46.713Z,6.27
2022-11-05T07:40:19.500Z,7.20
2022-11-05T07:42:50.108Z,7.27
2022-11-05T07:45:19.151Z,5.90
2022-11-05T07:47:48.870Z,7.17
2022-11-05T07:50:18.672Z,8.23
2022-11-05T07:52:48.016Z,5.77
2022-11-05T07:55:18.741Z,7.77
2022-11-05T07:57:48.775Z,7.47
2022-11-05T08:00:19.924Z,8.13
2022-11-05T08:03:03.831Z,6.73
2022-11-05T08:05:37.695Z,5.87
2022-11-05T08:08:07.087Z,6.80
2022-11-05T08:10:37.714Z,7.50
2022-11-05T08:13:07.157Z,7.53
2022-11-05T08:15:36.676Z,9.23
2022-11-05T08:18:08.045Z,7.67
2022-11-05T08:20:42.704Z,8.50
2022-11-05T08:23:12.249Z,7.97
2022-11-05T08:25:42.809Z,7.70
2022-11-05T08:28:13.607Z,7.47
2022-11-05T08:30:42.854Z,8.37
2022-11-05T08:33:14.572Z,7.47
2022-11-05T08:35:47.044Z,7.87
2022-11-05T08:38:17.541Z,7.17
2022-11-05T08:40:54.762Z,7.17
2022-11-05T08:43:23.997Z,7.57
2022-11-05T08:45:55.800Z,7.60
2022-11-05T08:48:24.515Z,6.70
2022-11-05T08:50:53.195Z,6.60
2022-11-05T08:53:22.053Z,7.70
2022-11-05T08:55:51.818Z,7.17
2022-11-05T08:58:20.859Z,7.60
2022-11-05T09:00:51.193Z,8.07
2022-11-05T09:03:19.807Z,7.87
2022-11-05T09:05:48.269Z,6.00
2022-11-05T09:08:18.181Z,7.00
2022-11-05T09:10:47.574Z,6.50
2022-11-05T09:13:19.899Z,5.80
2022-11-05T09:15:49.192Z,5.50
2022-11-05T09:18:18.369Z,6.27
2022-11-05T09:20:46.806Z,5.70
2022-11-05T09:23:15.873Z,6.00
2022-11-05T09:25:44.387Z,5.57
2022-11-05T09:28:17.151Z,6.07
2022-11-05T09:30:49.192Z,5.80
2022-11-05T09:33:17.942Z,6.40
2022-11-05T09:35:47.480Z,5.80
2022-11-05T09:38:15.904Z,5.70
2022-11-05T09:40:50.825Z,5.87
2022-11-05T09:43:26.055Z,7.50
2022-11-05T09:46:03.997Z,7.43
2022-11-05T09:48:34.398Z,6.53
2022-11-05T09:51:02.821Z,6.17
2022-11-05T09:53:31.042Z,5.47
2022-11-05T09:56:01.386Z,4.63
2022-11-05T09:58:38.900Z,4.80
2022-11-05T10:01:14.259Z,4.20
2022-11-05T10:03:46.977Z,4.60
2022-11-05T10:06:21.134Z,4.43
2022-11-05T10:08:53.790Z,3.93
2022-11-05T10:11:26.506Z,3.77
2022-11-05T10:14:00.002Z,3.03
2022-11-05T10:16:33.525Z,2.73
2022-11-05T10:19:07.246Z,1.90
2022-11-05T10:22:04.468Z,3.03
2022-11-05T10:24:23.888Z,2.70
2022-11-05T10:26:54.277Z,2.10
2022-11-05T10:29:29.191Z,2.60
2022-11-05T10:32:01.495Z,1.87
2022-11-05T10:34:34.446Z,2.70
2022-11-05T10:37:39.564Z,1.77
2022-11-05T10:40:29.252Z,2.00
2022-11-05T10:43:04.916Z,2.13
2022-11-05T10:45:41.419Z,1.70
2022-11-05T10:48:43.918Z,1.40
2022-11-05T10:51:12.651Z,2.00
2022-11-05T10:53:44.677Z,1.77
2022-11-05T10:56:35.159Z,2.70
2022-11-05T10:59:06.653Z,2.50
2022-11-05T11:01:38.186Z,2.43
2022-11-05T11:04:17.503Z,3.13
2022-11-05T11:06:50.381Z,3.00
2022-11-05T11:09:25.107Z,3.00
2022-11-05T11:12:15.341Z,2.77
2022-11-05T11:14:44.085Z,2.70
2022-11-05T11:17:27.052Z,2.60
2022-11-05T11:20:21.731Z,2.90
2022-11-05T11:23:05.041Z,2.60
2022-11-05T11:25:40.734Z,2.33
2022-11-05T11:28:18.907Z,3.20
2022-11-05T11:30:58.148Z,5.47
2022-11-05T11:33:29.285Z,8.53
2022-11-05T11:35:59.319Z,9.47
2022-11-05T11:38:33.669Z,3.43
2022-11-05T11:41:07.088Z,3.20
2022-11-05T11:43:38.290Z,2.73
2022-11-05T11:46:15.147Z,3.07
2022-11-05T11:48:47.470Z,3.27
2022-11-05T11:51:30.906Z,2.63
2022-11-05T11:54:00.944Z,2.80
2022-11-05T11:56:30.372Z,2.30
2022-11-05T11:59:15.622Z,2.67
2022-11-05T12:02:05.735Z,2.50
2022-11-05T12:04:57.495Z,3.90
2022-11-05T12:07:45.485Z,3.70
2022-11-05T12:10:29.435Z,3.00
2022-11-05T12:13:28.291Z,3.27
2022-11-05T12:15:58.622Z,2.33
2022-11-05T12:18:34.208Z,2.20
2022-11-05T12:21:08.267Z,2.07
2022-11-05T12:23:50.467Z,2.47
2022-11-05T12:26:27.442Z,2.37
2022-11-05T12:29:19.588Z,1.40
2022-11-05T12:32:00.624Z,1.50
2022-11-05T12:34:40.866Z,1.47
2022-11-05T12:37:19.257Z,2.33
2022-11-05T12:40:05.755Z,1.30
2022-11-05T12:42:46.379Z,1.73
2022-11-05T12:45:27.885Z,1.90
2022-11-05T12:48:09.964Z,1.47
2022-11-05T12:50:45.246Z,1.80
2022-11-05T12:53:42.337Z,1.70
2022-11-05T12:56:17.899Z,1.00
2022-11-05T12:58:49.717Z,1.10
2022-11-05T13:01:22.205Z,0.70
2022-11-05T13:03:56.322Z,1.00
2022-11-05T13:06:31.912Z,1.77
2022-11-05T13:09:04.534Z,1.00
2022-11-05T13:11:37.210Z,1.20
2022-11-05T13:14:12.335Z,1.07
2022-11-05T13:16:44.470Z,1.40
2022-11-05T13:19:18.612Z,1.50
2022-11-05T13:21:50.689Z,0.70
2022-11-05T13:24:21.959Z,0.80
2022-11-05T13:26:54.716Z,1.67
2022-11-05T13:29:27.768Z,1.00
2022-11-05T13:32:03.137Z,1.40
2022-11-05T13:34:37.292Z,1.10
2022-11-05T13:37:25.647Z,3.40
2022-11-05T13:39:56.745Z,1.07
2022-11-05T13:43:01.360Z,1.00
2022-11-05T13:45:49.734Z,1.20
2022-11-05T13:48:34.427Z,1.80
2022-11-05T13:51:38.697Z,1.30
2022-11-05T13:54:40.908Z,1.90
2022-11-05T13:57:37.221Z,2.10
2022-11-05T14:00:13.469Z,14.23
2022-11-05T14:02:44.696Z,4.10
2022-11-05T14:05:25.062Z,10.70
2022-11-05T14:07:54.559Z,9.97
2022-11-05T14:10:36.338Z,3.00
2022-11-05T14:13:20.397Z,2.93
2022-11-05T14:16:04.151Z,1.77
2022-11-05T14:18:44.352Z,2.67
2022-11-05T14:21:47.548Z,2.70
2022-11-05T14:24:40.533Z,1.70
2022-11-05T14:27:43.421Z,1.67
2022-11-05T14:30:41.325Z,1.13
2022-11-05T14:33:32.433Z,1.40
2022-11-05T14:36:29.553Z,1.20
2022-11-05T14:39:04.539Z,1.23
2022-11-05T14:41:32.845Z,1.00
2022-11-05T14:44:06.055Z,0.90
2022-11-05T14:46:42.630Z,1.33
2022-11-05T14:49:18.774Z,0.93
2022-11-05T14:51:50.355Z,1.60
2022-11-05T14:54:22.714Z,1.17
2022-11-05T14:56:56.254Z,1.00
2022-11-05T14:59:51.216Z,1.10
2022-11-05T15:02:22.117Z,0.90
2022-11-05T15:04:53.151Z,1.60
2022-11-05T15:07:36.669Z,1.10
2022-11-05T15:10:10.971Z,1.33
2022-11-05T15:12:44.438Z,1.10
2022-11-05T15:15:22.316Z,1.07
2022-11-05T15:18:01.237Z,1.00
2022-11-05T15:20:40.242Z,1.00
2022-11-05T15:23:13.063Z,1.30
2022-11-05T15:25:52.778Z,1.53
2022-11-05T15:28:28.372Z,1.30
2022-11-05T15:30:58.303Z,1.03
2022-11-05T15:33:26.651Z,1.47
2022-11-05T15:35:56.568Z,0.80
2022-11-05T15:38:31.195Z,1.00
2022-11-05T15:41:00.895Z,1.00
2022-11-05T15:43:28.970Z,1.50
2022-11-05T15:46:09.143Z,1.00
2022-11-05T15:48:37.647Z,1.03
2022-11-05T15:51:07.250Z,1.20
2022-11-05T15:54:08.340Z,0.73
2022-11-05T15:56:29.851Z,0.80
2022-11-05T15:59:01.930Z,1.23
2022-11-05T16:01:31.619Z,1.10
2022-11-05T16:04:08.620Z,1.27
2022-11-05T16:06:41.963Z,1.57
2022-11-05T16:09:22.124Z,1.00
2022-11-05T16:11:50.275Z,1.00
2022-11-05T16:14:20.793Z,1.10
2022-11-05T16:16:48.956Z,0.67
2022-11-05T16:19:40.605Z,1.13
2022-11-05T16:22:11.209Z,1.23
2022-11-05T16:24:39.492Z,0.57
2022-11-05T16:27:14.052Z,1.20
2022-11-05T16:29:50.457Z,2.60
2022-11-05T16:32:26.848Z,3.40
2022-11-05T16:35:00.439Z,3.33
2022-11-05T16:37:46.337Z,3.33
2022-11-05T16:40:19.580Z,2.53
2022-11-05T16:42:51.223Z,1.90
2022-11-05T16:45:21.875Z,1.30
2022-11-05T16:47:50.563Z,2.70
2022-11-05T16:50:22.188Z,1.67
2022-11-05T16:52:52.027Z,1.97
2022-11-05T16:55:20.911Z,1.60
2022-11-05T16:57:53.086Z,1.70
2022-11-05T17:00:22.761Z,1.97
2022-11-05T17:02:51.644Z,1.87
2022-11-05T17:05:24.011Z,1.75
2022-11-05T17:07:54.144Z,1.45
2022-11-05T17:10:24.134Z,1.35
2022-11-05T17:12:52.573Z,1.75
2022-11-05T17:15:23.291Z,1.55
2022-11-05T17:17:51.840Z,1.30
2022-11-05T17:20:36.517Z,1.63
2022-11-05T17:23:10.988Z,1.65
2022-11-05T17:25:40.040Z,1.77
2022-11-05T17:28:08.827Z,2.15
2022-11-05T17:30:41.219Z,2.47
2022-11-05T17:33:10.932Z,2.28
2022-11-05T17:35:40.631Z,1.92
2022-11-05T17:38:10.934Z,2.03
2022-11-05T17:40:40.170Z,1.75
2022-11-05T17:43:08.624Z,1.65
2022-11-05T17:45:42.557Z,2.40
2022-11-05T17:48:10.958Z,3.17
2022-11-05T17:50:42.242Z,3.05
2022-11-05T17:53:12.369Z,2.92
2022-11-05T17:55:41.728Z,2.92
2022-11-05T17:58:09.945Z,2.78
2022-11-05T18:00:38.264Z,2.67
2022-11-05T18:03:06.516Z,3.13
2022-11-05T18:05:35.617Z,3.20
2022-11-05T18:08:03.872Z,4.07
2022-11-05T18:10:33.723Z,4.68
2022-11-05T18:13:02.028Z,6.43
2022-11-05T18:15:30.175Z,7.18
2022-11-05T18:17:58.333Z,7.30
2022-11-05T18:20:26.368Z,4.22
2022-11-05T18:22:55.663Z,3.15
2022-11-05T18:25:23.732Z,3.08
2022-11-05T18:27:53.142Z,3.45
2022-11-05T18:30:21.504Z,2.72
2022-11-05T18:32:50.963Z,3.47
2022-11-05T18:35:19.755Z,5.43
2022-11-05T18:37:47.830Z,4.00
2022-11-05T18:40:15.883Z,4.18
2022-11-05T18:42:43.986Z,2.35
2022-11-05T18:45:13.669Z,2.33
2022-11-05T18:47:41.789Z,2.47
2022-11-05T18:50:10.873Z,2.65
2022-11-05T18:52:39.039Z,2.20
2022-11-05T18:55:08.398Z,2.25
2022-11-05T18:57:36.674Z,2.20
2022-11-05T19:00:05.826Z,2.88
2022-11-05T19:02:35.515Z,2.60
2022-11-05T19:07:52.189Z,3.72
2022-11-05T19:10:20.309Z,2.60
2022-11-05T19:12:48.357Z,2.83
2022-11-05T19:15:16.518Z,2.50
2022-11-05T19:17:46.314Z,5.18
2022-11-05T19:20:14.501Z,5.80
2022-11-05T19:22:42.904Z,9.52
2022-11-05T19:25:12.067Z,11.10
2022-11-05T19:27:42.574Z,8.00
2022-11-05T19:30:11.463Z,6.82
2022-11-05T19:32:40.561Z,3.25
2022-11-05T19:35:10.488Z,3.10
2022-11-05T19:37:38.591Z,2.40
2022-11-05T19:40:08.042Z,2.03
2022-11-05T19:42:36.322Z,2.25
2022-11-05T19:45:30.144Z,1.77
2022-11-05T19:47:55.890Z,2.72
2022-11-05T19:50:25.658Z,2.10
2022-11-05T19:52:53.895Z,1.92
2022-11-05T19:55:22.099Z,3.70
2022-11-05T19:57:50.187Z,12.30
2022-11-05T20:00:18.726Z,14.65
2022-11-05T20:02:47.853Z,16.27
2022-11-05T20:05:18.840Z,17.48
2022-11-05T20:07:52.760Z,15.90
2022-11-05T20:10:21.191Z,20.50
2022-11-05T20:12:51.774Z,18.67
2022-11-05T20:15:20.423Z,19.83
2022-11-05T20:17:52.037Z,18.90
2022-11-05T20:20:20.575Z,18.45
2022-11-05T20:22:51.983Z,18.55
2022-11-05T20:25:22.097Z,22.10
2022-11-05T20:27:50.433Z,21.88
2022-11-05T20:30:18.960Z,21.52
2022-11-05T20:32:47.285Z,19.30
2022-11-05T20:35:15.309Z,16.35
2022-11-05T20:37:49.750Z,15.02
2022-11-05T20:40:27.713Z,16.48
2022-11-05T20:43:00.016Z,16.20
2022-11-05T20:45:28.117Z,17.45
2022-11-05T20:47:56.174Z,20.52
2022-11-05T20:50:24.226Z,18.90
2022-11-05T20:52:54.822Z,14.93
2022-11-05T20:55:24.551Z,15.15
2022-11-05T21:04:05.562Z,8.43
2022-11-05T21:06:34.842Z,6.18
2022-11-05T21:09:03.691Z,4.55
2022-11-05T21:11:53.213Z,4.40
2022-11-05T21:14:21.316Z,3.60
2022-11-05T21:16:49.610Z,3.30
2022-11-05T21:19:17.668Z,2.63
2022-11-05T21:21:46.977Z,3.00
2022-11-05T21:24:15.253Z,4.50
2022-11-05T21:26:44.689Z,3.72
2022-11-05T21:29:12.965Z,3.60
2022-11-05T21:31:41.034Z,3.10
2022-11-05T21:34:09.564Z,3.95
2022-11-05T21:36:37.973Z,3.60
2022-11-05T21:39:12.047Z,3.15
2022-11-05T21:41:45.044Z,3.28
2022-11-05T21:44:22.965Z,2.90
2022-11-05T21:46:55.557Z,3.00
2022-11-05T21:49:25.250Z,3.47
2022-11-05T21:52:11.295Z,3.58
2022-11-05T21:54:56.802Z,2.60
2022-11-05T21:57:44.187Z,2.83
2022-11-05T22:00:17.484Z,3.00
2022-11-05T22:02:47.202Z,3.85
2022-11-05T22:05:15.538Z,3.45
2022-11-05T22:07:46.460Z,3.38
2022-11-05T22:10:16.510Z,4.32
2022-11-05T22:12:49.784Z,3.97
2022-11-05T22:15:21.866Z,3.67
2022-11-05T22:17:51.376Z,4.80
2022-11-05T22:20:19.998Z,3.70
2022-11-05T22:22:48.164Z,4.75
2022-11-05T22:25:17.133Z,4.35
2022-11-05T22:27:47.079Z,3.85
2022-11-05T22:30:15.724Z,4.30
2022-11-05T22:32:44.126Z,4.07
2022-11-05T22:35:12.252Z,4.70
2022-11-05T22:37:41.690Z,4.50
2022-11-05T22:40:10.631Z,4.45
2022-11-05T22:42:38.896Z,4.80
2022-11-05T22:45:09.777Z,5.30
2022-11-05T22:47:39.242Z,4.30
2022-11-05T22:50:08.010Z,3.85
2022-11-05T22:52:36.131Z,4.13
2022-11-05T22:55:06.189Z,4.55
2022-11-05T22:57:34.411Z,4.00
2022-11-05T23:00:02.509Z,4.00
2022-11-05T23:02:32.254Z,4.40
2022-11-05T23:05:01.658Z,5.05
2022-11-05T23:07:47.162Z,4.00
2022-11-05T23:10:32.747Z,4.28
2022-11-05T23:13:00.967Z,4.60
2022-11-05T23:15:46.588Z,5.90
2022-11-05T23:18:33.532Z,4.40
2022-11-05T23:21:23.142Z,4.18
2022-11-05T23:24:06.477Z,5.05
2022-11-05T23:26:50.968Z,5.10
2022-11-05T23:29:23.648Z,5.50
2022-11-05T23:32:09.032Z,6.65
2022-11-05T23:34:39.078Z,5.20
2022-11-05T23:37:25.146Z,6.30
2022-11-05T23:39:53.305Z,5.32
2022-11-05T23:42:39.110Z,6.07
2022-11-05T23:45:25.456Z,5.63
2022-11-05T23:48:11.126Z,5.72
2022-11-05T23:50:41.614Z,5.75
2022-11-05T23:53:10.412Z,5.18
2022-11-05T23:55:39.450Z,5.10
2022-11-05T23:58:08.362Z,5.18
